This is the latest recevied weather packets stored in our database for station/object HB9BVR. If no packets are shown the sender has not sent any weather packets the latest 10 day(s).
| Time | Temp. | Humidity | Pressure | Rain* | Wind** | Luminosity | Snow |
|---|---|---|---|---|---|---|---|
| 1788131005 | 71° F | 61% | - | 0 in | - | - | - |
| 1788127404 | 71° F | 62% | - | 0 in | - | - | - |
| 1788122007 | 72° F | 60% | - | 0 in | - | - | - |
| 1788113905 | 75° F | 55% | - | 0 in | - | - | - |
| 1788098606 | 80° F | 51% | - | 0 in | - | - | - |
| 1788094105 | 82° F | 50% | - | 0 in | - | - | - |
| 1788090504 | 83° F | 45% | - | 0 in | - | - | - |
| 1788085103 | 78° F | 52% | - | 0 in | - | - | - |
| 1788082402 | 76° F | 55% | - | 0 in | - | - | - |
| 1788076106 | 71° F | 64% | - | 0 in | - | - | - |
| 1788072504 | 66° F | 71% | - | 0 in | - | - | - |
| 1788071604 | 63° F | 75% | - | 0 in | - | - | - |
| 1788062602 | 63° F | 75% | - | 0 in | - | - | - |
| 1788056305 | 64° F | 74% | - | 0 in | - | - | - |
| 1788020301 | 76° F | 51% | - | 0 in | - | - | - |
| 1788016700 | 77° F | 50% | - | 0 in | - | - | - |
| 1788009503 | 77° F | 50% | - | 0 in | - | - | - |
| 1788007703 | 77° F | 52% | - | 0 in | - | - | - |
| 1788002301 | 77° F | 55% | - | 0 in | - | - | - |
| 1787994199 | 70° F | 63% | - | 0 in | - | - | - |
| 1787992399 | 70° F | 66% | - | 0 in | - | - | - |
| 1787987002 | 63° F | 80% | - | 0 in | - | - | - |
| 1787978900 | 59° F | 84% | - | 0 in | - | - | - |
| 1787977100 | 59° F | 85% | - | 0 in | - | - | - |
| 1787966302 | 60° F | 86% | - | 0 in | - | - | - |
* Rain latest hour (hover to see other rain measurements)
** Current wind speed in m/s (hover to see current wind gust speed)